sensor_id;sensor_type;location;lat;lon;timestamp;pressure;altitude;pressure_sealevel;temperature;humidity
49583;BME280;36329;48.816;44.624;2023-12-20T00:00:16;101329;;;3.8;100
49583;BME280;36329;48.816;44.624;2023-12-20T00:03:18;101324;;;3.9;100
49583;BME280;36329;48.816;44.624;2023-12-20T00:06:20;101333;;;3.8;100
49583;BME280;36329;48.816;44.624;2023-12-20T00:09:22;101331;;;3.8;100
49583;BME280;36329;48.816;44.624;2023-12-20T00:12:24;101339;;;4;100
49583;BME280;36329;48.816;44.624;2023-12-20T00:15:26;101357;;;4;100
49583;BME280;36329;48.816;44.624;2023-12-20T00:18:28;101351;;;3.9;100
49583;BME280;36329;48.816;44.624;2023-12-20T00:21:31;101354;;;3.9;100
49583;BME280;36329;48.816;44.624;2023-12-20T00:24:33;101355;;;4;100
49583;BME280;36329;48.816;44.624;2023-12-20T00:27:35;101352;;;4.1;100
49583;BME280;36329;48.816;44.624;2023-12-20T00:30:38;101352;;;3.8;100
49583;BME280;36329;48.816;44.624;2023-12-20T00:33:40;101334;;;3.8;100
49583;BME280;36329;48.816;44.624;2023-12-20T00:36:42;101345;;;3.8;100
49583;BME280;36329;48.816;44.624;2023-12-20T00:39:45;101344;;;3.9;100
49583;BME280;36329;48.816;44.624;2023-12-20T00:42:47;101348;;;3.9;100
49583;BME280;36329;48.816;44.624;2023-12-20T00:45:49;101354;;;3.9;100
49583;BME280;36329;48.816;44.624;2023-12-20T00:48:51;101342;;;3.9;100
49583;BME280;36329;48.816;44.624;2023-12-20T00:51:53;101342;;;3.8;100
49583;BME280;36329;48.816;44.624;2023-12-20T00:54:56;101342;;;3.8;100
49583;BME280;36329;48.816;44.624;2023-12-20T00:57:58;101329;;;3.7;100
49583;BME280;36329;48.816;44.624;2023-12-20T01:01:00;101347;;;3.7;100
49583;BME280;36329;48.816;44.624;2023-12-20T01:04:03;101335;;;3.5;100
49583;BME280;36329;48.816;44.624;2023-12-20T01:07:05;101339;;;3.6;100
49583;BME280;36329;48.816;44.624;2023-12-20T01:10:07;101339;;;3.5;100
49583;BME280;36329;48.816;44.624;2023-12-20T01:13:10;101344;;;3.4;100
49583;BME280;36329;48.816;44.624;2023-12-20T01:16:12;101361;;;3.4;100
49583;BME280;36329;48.816;44.624;2023-12-20T01:19:14;101342;;;3.4;100
49583;BME280;36329;48.816;44.624;2023-12-20T01:22:16;101339;;;3.5;100
49583;BME280;36329;48.816;44.624;2023-12-20T01:25:19;101331;;;3.5;100
49583;BME280;36329;48.816;44.624;2023-12-20T01:28:21;101327;;;3.6;100
49583;BME280;36329;48.816;44.624;2023-12-20T01:31:23;101321;;;3.5;100
49583;BME280;36329;48.816;44.624;2023-12-20T01:34:26;101319;;;3.5;100
49583;BME280;36329;48.816;44.624;2023-12-20T01:37:28;101295;;;3.5;100
49583;BME280;36329;48.816;44.624;2023-12-20T01:40:30;101311;;;3.5;100
49583;BME280;36329;48.816;44.624;2023-12-20T01:43:33;101311;;;3.5;100
49583;BME280;36329;48.816;44.624;2023-12-20T01:46:35;101313;;;3.6;100
49583;BME280;36329;48.816;44.624;2023-12-20T01:49:37;101296;;;3.5;100
49583;BME280;36329;48.816;44.624;2023-12-20T01:52:41;101306;;;3.4;100
49583;BME280;36329;48.816;44.624;2023-12-20T01:55:43;101307;;;3.4;100
49583;BME280;36329;48.816;44.624;2023-12-20T01:58:47;101302;;;3.4;100
49583;BME280;36329;48.816;44.624;2023-12-20T02:01:50;101301;;;3.5;100
49583;BME280;36329;48.816;44.624;2023-12-20T02:04:52;101300;;;3.4;100
49583;BME280;36329;48.816;44.624;2023-12-20T02:07:54;101301;;;3.4;100
49583;BME280;36329;48.816;44.624;2023-12-20T02:10:57;101303;;;3.4;100
49583;BME280;36329;48.816;44.624;2023-12-20T02:13:59;101294;;;3.4;100
49583;BME280;36329;48.816;44.624;2023-12-20T02:17:02;101294;;;3.3;100
49583;BME280;36329;48.816;44.624;2023-12-20T02:20:04;101290;;;3.2;100
49583;BME280;36329;48.816;44.624;2023-12-20T02:23:07;101286;;;3.3;100
49583;BME280;36329;48.816;44.624;2023-12-20T02:26:09;101298;;;3.5;100
49583;BME280;36329;48.816;44.624;2023-12-20T02:29:12;101293;;;3.5;100
49583;BME280;36329;48.816;44.624;2023-12-20T02:32:15;101297;;;3.4;100
49583;BME280;36329;48.816;44.624;2023-12-20T02:35:18;101283;;;3.5;100
49583;BME280;36329;48.816;44.624;2023-12-20T02:38:20;101274;;;3.5;100
49583;BME280;36329;48.816;44.624;2023-12-20T02:41:22;101280;;;3.5;100
49583;BME280;36329;48.816;44.624;2023-12-20T02:44:25;101284;;;3.5;100
49583;BME280;36329;48.816;44.624;2023-12-20T02:47:27;101279;;;3.6;100
49583;BME280;36329;48.816;44.624;2023-12-20T02:50:29;101290;;;3.6;100
49583;BME280;36329;48.816;44.624;2023-12-20T02:53:31;101289;;;3.7;100
49583;BME280;36329;48.816;44.624;2023-12-20T02:56:33;101291;;;3.6;100
49583;BME280;36329;48.816;44.624;2023-12-20T02:59:36;101287;;;3.7;100
49583;BME280;36329;48.816;44.624;2023-12-20T03:02:38;101294;;;3.7;100
49583;BME280;36329;48.816;44.624;2023-12-20T03:05:40;101294;;;3.8;100
49583;BME280;36329;48.816;44.624;2023-12-20T03:08:42;101297;;;3.7;100
49583;BME280;36329;48.816;44.624;2023-12-20T03:11:44;101302;;;3.8;100
49583;BME280;36329;48.816;44.624;2023-12-20T03:14:47;101303;;;3.8;100
49583;BME280;36329;48.816;44.624;2023-12-20T03:17:49;101315;;;3.8;100
49583;BME280;36329;48.816;44.624;2023-12-20T03:20:52;101320;;;3.9;100
49583;BME280;36329;48.816;44.624;2023-12-20T03:23:54;101326;;;3.8;100
49583;BME280;36329;48.816;44.624;2023-12-20T03:26:56;101319;;;3.9;100
49583;BME280;36329;48.816;44.624;2023-12-20T03:29:58;101321;;;3.9;100
49583;BME280;36329;48.816;44.624;2023-12-20T03:33:00;101321;;;3.9;100
49583;BME280;36329;48.816;44.624;2023-12-20T03:36:03;101316;;;3.8;100
49583;BME280;36329;48.816;44.624;2023-12-20T03:39:06;101325;;;3.8;100
49583;BME280;36329;48.816;44.624;2023-12-20T03:42:08;101324;;;3.8;100
49583;BME280;36329;48.816;44.624;2023-12-20T03:45:10;101318;;;3.9;100
49583;BME280;36329;48.816;44.624;2023-12-20T03:48:12;101334;;;4;100
49583;BME280;36329;48.816;44.624;2023-12-20T03:51:15;101330;;;3.8;100
49583;BME280;36329;48.816;44.624;2023-12-20T03:54:17;101333;;;3.7;100
49583;BME280;36329;48.816;44.624;2023-12-20T03:57:19;101336;;;3.7;100
49583;BME280;36329;48.816;44.624;2023-12-20T04:00:21;101334;;;3.7;100
49583;BME280;36329;48.816;44.624;2023-12-20T04:03:23;101326;;;3.7;100
49583;BME280;36329;48.816;44.624;2023-12-20T04:06:25;101332;;;3.8;100
49583;BME280;36329;48.816;44.624;2023-12-20T04:09:28;101318;;;3.8;100
49583;BME280;36329;48.816;44.624;2023-12-20T04:12:30;101315;;;3.8;100
49583;BME280;36329;48.816;44.624;2023-12-20T04:15:33;101315;;;3.8;100
49583;BME280;36329;48.816;44.624;2023-12-20T04:18:36;101315;;;3.7;100
49583;BME280;36329;48.816;44.624;2023-12-20T04:21:38;101308;;;3.7;100
49583;BME280;36329;48.816;44.624;2023-12-20T04:24:41;101310;;;3.7;100
49583;BME280;36329;48.816;44.624;2023-12-20T04:27:44;101302;;;3.8;100
49583;BME280;36329;48.816;44.624;2023-12-20T04:30:46;101300;;;3.8;100
49583;BME280;36329;48.816;44.624;2023-12-20T04:33:49;101317;;;3.8;100
49583;BME280;36329;48.816;44.624;2023-12-20T04:36:51;101308;;;3.7;100
49583;BME280;36329;48.816;44.624;2023-12-20T04:39:54;101307;;;3.8;100
49583;BME280;36329;48.816;44.624;2023-12-20T04:42:56;101302;;;3.9;100
49583;BME280;36329;48.816;44.624;2023-12-20T04:45:59;101300;;;3.9;100
49583;BME280;36329;48.816;44.624;2023-12-20T04:49:01;101308;;;3.9;100
49583;BME280;36329;48.816;44.624;2023-12-20T04:52:03;101317;;;3.9;100
49583;BME280;36329;48.816;44.624;2023-12-20T04:55:06;101330;;;3.8;100
49583;BME280;36329;48.816;44.624;2023-12-20T04:58:09;101308;;;3.9;100
49583;BME280;36329;48.816;44.624;2023-12-20T05:01:11;101327;;;3.8;100
49583;BME280;36329;48.816;44.624;2023-12-20T05:04:14;101316;;;3.8;100
49583;BME280;36329;48.816;44.624;2023-12-20T05:07:16;101321;;;3.9;100
49583;BME280;36329;48.816;44.624;2023-12-20T05:10:18;101325;;;4;100
49583;BME280;36329;48.816;44.624;2023-12-20T05:13:20;101326;;;4;100
49583;BME280;36329;48.816;44.624;2023-12-20T05:16:23;101336;;;4;100
49583;BME280;36329;48.816;44.624;2023-12-20T05:19:28;101334;;;4;100
49583;BME280;36329;48.816;44.624;2023-12-20T05:22:31;101334;;;4;100
49583;BME280;36329;48.816;44.624;2023-12-20T05:25:34;101345;;;4;100
49583;BME280;36329;48.816;44.624;2023-12-20T05:28:36;101338;;;4.1;100
49583;BME280;36329;48.816;44.624;2023-12-20T05:31:38;101339;;;4.1;100
49583;BME280;36329;48.816;44.624;2023-12-20T05:34:41;101350;;;4;100
49583;BME280;36329;48.816;44.624;2023-12-20T05:37:44;101352;;;4.1;100
49583;BME280;36329;48.816;44.624;2023-12-20T05:40:46;101350;;;4.2;100
49583;BME280;36329;48.816;44.624;2023-12-20T05:43:48;101354;;;4.2;100
49583;BME280;36329;48.816;44.624;2023-12-20T05:46:50;101369;;;4.3;100
49583;BME280;36329;48.816;44.624;2023-12-20T05:49:53;101366;;;4.2;100
49583;BME280;36329;48.816;44.624;2023-12-20T05:52:55;101373;;;4.3;100
49583;BME280;36329;48.816;44.624;2023-12-20T05:55:57;101375;;;4.2;100
49583;BME280;36329;48.816;44.624;2023-12-20T05:58:59;101375;;;4.4;100
49583;BME280;36329;48.816;44.624;2023-12-20T06:02:03;101375;;;4.3;100
49583;BME280;36329;48.816;44.624;2023-12-20T06:05:05;101372;;;4.4;100
49583;BME280;36329;48.816;44.624;2023-12-20T06:08:08;101377;;;4.3;100
49583;BME280;36329;48.816;44.624;2023-12-20T06:11:10;101372;;;4.3;100
49583;BME280;36329;48.816;44.624;2023-12-20T06:14:12;101367;;;4.4;100
49583;BME280;36329;48.816;44.624;2023-12-20T06:17:14;101368;;;4.4;100
49583;BME280;36329;48.816;44.624;2023-12-20T06:20:17;101379;;;4.2;100
49583;BME280;36329;48.816;44.624;2023-12-20T06:23:19;101386;;;4.3;100
49583;BME280;36329;48.816;44.624;2023-12-20T06:26:22;101385;;;4.4;100
49583;BME280;36329;48.816;44.624;2023-12-20T06:29:24;101386;;;4.4;100
49583;BME280;36329;48.816;44.624;2023-12-20T06:32:26;101365;;;4.3;100
49583;BME280;36329;48.816;44.624;2023-12-20T06:35:28;101379;;;4.3;100
49583;BME280;36329;48.816;44.624;2023-12-20T06:38:30;101370;;;4.4;100
49583;BME280;36329;48.816;44.624;2023-12-20T06:41:33;101370;;;4.4;100
49583;BME280;36329;48.816;44.624;2023-12-20T06:44:35;101370;;;4.4;100
49583;BME280;36329;48.816;44.624;2023-12-20T06:47:37;101358;;;4.5;100
49583;BME280;36329;48.816;44.624;2023-12-20T06:50:39;101367;;;4.5;100
49583;BME280;36329;48.816;44.624;2023-12-20T06:53:42;101355;;;4.5;100
49583;BME280;36329;48.816;44.624;2023-12-20T06:56:44;101359;;;4.5;100
49583;BME280;36329;48.816;44.624;2023-12-20T06:59:46;101356;;;4.5;100
49583;BME280;36329;48.816;44.624;2023-12-20T07:02:49;101365;;;4.6;100
49583;BME280;36329;48.816;44.624;2023-12-20T07:05:51;101372;;;4.7;100
49583;BME280;36329;48.816;44.624;2023-12-20T07:08:53;101372;;;4.7;100
49583;BME280;36329;48.816;44.624;2023-12-20T07:11:55;101363;;;4.6;100
49583;BME280;36329;48.816;44.624;2023-12-20T07:14:58;101365;;;4.7;100
49583;BME280;36329;48.816;44.624;2023-12-20T07:18:01;101374;;;4.7;100
49583;BME280;36329;48.816;44.624;2023-12-20T07:21:05;101361;;;4.7;100
49583;BME280;36329;48.816;44.624;2023-12-20T07:24:08;101356;;;4.7;100
49583;BME280;36329;48.816;44.624;2023-12-20T07:27:10;101363;;;4.6;100
49583;BME280;36329;48.816;44.624;2023-12-20T07:30:12;101355;;;4.6;100
49583;BME280;36329;48.816;44.624;2023-12-20T07:33:15;101348;;;4.7;100
49583;BME280;36329;48.816;44.624;2023-12-20T07:36:19;101354;;;4.8;100
49583;BME280;36329;48.816;44.624;2023-12-20T07:39:21;101357;;;4.7;100
49583;BME280;36329;48.816;44.624;2023-12-20T07:42:23;101347;;;4.8;100
49583;BME280;36329;48.816;44.624;2023-12-20T07:45:25;101366;;;4.7;100
49583;BME280;36329;48.816;44.624;2023-12-20T07:48:27;101357;;;4.8;100
49583;BME280;36329;48.816;44.624;2023-12-20T07:51:30;101350;;;4.9;100
49583;BME280;36329;48.816;44.624;2023-12-20T07:54:32;101351;;;4.7;100
49583;BME280;36329;48.816;44.624;2023-12-20T07:57:35;101342;;;4.7;100
49583;BME280;36329;48.816;44.624;2023-12-20T08:00:37;101341;;;4.7;100
49583;BME280;36329;48.816;44.624;2023-12-20T08:03:40;101333;;;4.8;100
49583;BME280;36329;48.816;44.624;2023-12-20T08:06:42;101343;;;4.9;100
49583;BME280;36329;48.816;44.624;2023-12-20T08:09:45;101331;;;4.9;100
49583;BME280;36329;48.816;44.624;2023-12-20T08:12:48;101335;;;5.1;100
49583;BME280;36329;48.816;44.624;2023-12-20T08:15:50;101338;;;5.1;100
49583;BME280;36329;48.816;44.624;2023-12-20T08:18:52;101342;;;5.1;100
49583;BME280;36329;48.816;44.624;2023-12-20T08:21:55;101332;;;5.1;100
49583;BME280;36329;48.816;44.624;2023-12-20T08:24:57;101323;;;5.1;100
49583;BME280;36329;48.816;44.624;2023-12-20T08:28:02;101322;;;5.1;100
49583;BME280;36329;48.816;44.624;2023-12-20T08:31:04;101310;;;5.1;100
49583;BME280;36329;48.816;44.624;2023-12-20T08:34:06;101343;;;5.1;100
49583;BME280;36329;48.816;44.624;2023-12-20T08:37:08;101337;;;5.1;100
49583;BME280;36329;48.816;44.624;2023-12-20T08:40:11;101323;;;5.1;100
49583;BME280;36329;48.816;44.624;2023-12-20T08:43:13;101315;;;5.2;100
49583;BME280;36329;48.816;44.624;2023-12-20T08:46:16;101318;;;5.2;100
49583;BME280;36329;48.816;44.624;2023-12-20T08:49:18;101316;;;5.3;100
49583;BME280;36329;48.816;44.624;2023-12-20T08:52:21;101309;;;5.3;100
49583;BME280;36329;48.816;44.624;2023-12-20T08:55:24;101313;;;5.3;100
49583;BME280;36329;48.816;44.624;2023-12-20T08:58:27;101305;;;5.4;100
49583;BME280;36329;48.816;44.624;2023-12-20T09:01:29;101304;;;5.5;100
49583;BME280;36329;48.816;44.624;2023-12-20T09:04:32;101302;;;5.4;100
49583;BME280;36329;48.816;44.624;2023-12-20T09:07:37;101293;;;5.5;100
49583;BME280;36329;48.816;44.624;2023-12-20T09:10:41;101291;;;5.5;100
49583;BME280;36329;48.816;44.624;2023-12-20T09:13:43;101294;;;5.6;100
49583;BME280;36329;48.816;44.624;2023-12-20T09:16:46;101292;;;5.6;100
49583;BME280;36329;48.816;44.624;2023-12-20T09:19:55;101275;;;5.6;100
49583;BME280;36329;48.816;44.624;2023-12-20T09:23:00;101281;;;5.7;100
49583;BME280;36329;48.816;44.624;2023-12-20T09:26:02;101284;;;5.8;100
49583;BME280;36329;48.816;44.624;2023-12-20T09:29:05;101237;;;5.8;100
49583;BME280;36329;48.816;44.624;2023-12-20T09:32:11;101307;;;5.8;100
49583;BME280;36329;48.816;44.624;2023-12-20T09:35:15;101269;;;5.9;100
49583;BME280;36329;48.816;44.624;2023-12-20T09:38:18;101271;;;6.1;100
49583;BME280;36329;48.816;44.624;2023-12-20T09:41:20;101266;;;6;100
49583;BME280;36329;48.816;44.624;2023-12-20T09:44:25;101262;;;5.9;100
49583;BME280;36329;48.816;44.624;2023-12-20T09:47:28;101267;;;6.1;100
49583;BME280;36329;48.816;44.624;2023-12-20T09:50:30;101249;;;6.1;100
49583;BME280;36329;48.816;44.624;2023-12-20T09:53:33;101259;;;6.1;100
49583;BME280;36329;48.816;44.624;2023-12-20T09:56:39;101267;;;6.1;100
49583;BME280;36329;48.816;44.624;2023-12-20T09:59:42;101249;;;6.1;100
49583;BME280;36329;48.816;44.624;2023-12-20T10:02:50;101259;;;6.1;100
49583;BME280;36329;48.816;44.624;2023-12-20T10:06:00;101256;;;6.2;100
49583;BME280;36329;48.816;44.624;2023-12-20T10:09:02;101264;;;6.2;100
49583;BME280;36329;48.816;44.624;2023-12-20T10:12:06;101241;;;6.3;100
49583;BME280;36329;48.816;44.624;2023-12-20T10:15:08;101255;;;6.3;100
49583;BME280;36329;48.816;44.624;2023-12-20T10:18:12;101247;;;6.4;100
49583;BME280;36329;48.816;44.624;2023-12-20T10:21:14;101258;;;6.3;100
49583;BME280;36329;48.816;44.624;2023-12-20T10:24:17;101244;;;6.4;100
49583;BME280;36329;48.816;44.624;2023-12-20T10:27:21;101258;;;6.3;100
49583;BME280;36329;48.816;44.624;2023-12-20T10:30:24;101245;;;6.3;100
49583;BME280;36329;48.816;44.624;2023-12-20T10:33:28;101251;;;6.3;100
49583;BME280;36329;48.816;44.624;2023-12-20T10:36:31;101243;;;6.3;100
49583;BME280;36329;48.816;44.624;2023-12-20T10:39:34;101259;;;6.4;100
49583;BME280;36329;48.816;44.624;2023-12-20T10:42:37;101265;;;6.3;100
49583;BME280;36329;48.816;44.624;2023-12-20T10:45:41;101253;;;6.4;100
49583;BME280;36329;48.816;44.624;2023-12-20T10:48:44;101246;;;6.5;100
49583;BME280;36329;48.816;44.624;2023-12-20T10:51:47;101266;;;6.5;100
49583;BME280;36329;48.816;44.624;2023-12-20T10:54:50;101247;;;6.5;100
49583;BME280;36329;48.816;44.624;2023-12-20T10:57:54;101255;;;6.4;100
49583;BME280;36329;48.816;44.624;2023-12-20T11:01:02;101253;;;6.5;100
49583;BME280;36329;48.816;44.624;2023-12-20T11:04:09;101252;;;6.5;100
49583;BME280;36329;48.816;44.624;2023-12-20T11:07:24;101252;;;6.5;100
49583;BME280;36329;48.816;44.624;2023-12-20T11:10:31;101256;;;6.5;100
49583;BME280;36329;48.816;44.624;2023-12-20T11:13:44;101259;;;6.6;100
49583;BME280;36329;48.816;44.624;2023-12-20T11:17:05;101254;;;6.7;100
49583;BME280;36329;48.816;44.624;2023-12-20T11:20:10;101254;;;6.7;100
49583;BME280;36329;48.816;44.624;2023-12-20T11:23:16;101252;;;6.8;100
49583;BME280;36329;48.816;44.624;2023-12-20T11:26:26;101246;;;6.7;100
49583;BME280;36329;48.816;44.624;2023-12-20T11:29:33;101255;;;6.6;100
49583;BME280;36329;48.816;44.624;2023-12-20T11:32:40;101248;;;6.7;100
49583;BME280;36329;48.816;44.624;2023-12-20T11:35:45;101238;;;6.8;100
49583;BME280;36329;48.816;44.624;2023-12-20T11:38:57;101241;;;6.8;100
49583;BME280;36329;48.816;44.624;2023-12-20T11:42:05;101223;;;6.7;100
49583;BME280;36329;48.816;44.624;2023-12-20T11:45:09;101238;;;6.7;100
49583;BME280;36329;48.816;44.624;2023-12-20T11:48:12;101242;;;6.7;100
49583;BME280;36329;48.816;44.624;2023-12-20T11:51:14;101232;;;6.7;100
49583;BME280;36329;48.816;44.624;2023-12-20T11:54:17;101236;;;6.8;100
49583;BME280;36329;48.816;44.624;2023-12-20T11:57:19;101241;;;6.8;100
49583;BME280;36329;48.816;44.624;2023-12-20T12:00:22;101246;;;6.8;100
49583;BME280;36329;48.816;44.624;2023-12-20T12:03:24;101254;;;6.8;100
49583;BME280;36329;48.816;44.624;2023-12-20T12:06:28;101246;;;6.8;100
49583;BME280;36329;48.816;44.624;2023-12-20T12:09:30;101248;;;6.7;100
49583;BME280;36329;48.816;44.624;2023-12-20T12:12:33;101254;;;6.7;100
49583;BME280;36329;48.816;44.624;2023-12-20T12:15:36;101253;;;6.7;100
49583;BME280;36329;48.816;44.624;2023-12-20T12:18:38;101249;;;6.7;100
49583;BME280;36329;48.816;44.624;2023-12-20T12:21:41;101264;;;6.7;100
49583;BME280;36329;48.816;44.624;2023-12-20T12:24:44;101259;;;6.7;100
49583;BME280;36329;48.816;44.624;2023-12-20T12:27:46;101274;;;6.7;100
49583;BME280;36329;48.816;44.624;2023-12-20T12:30:56;101268;;;6.6;100
49583;BME280;36329;48.816;44.624;2023-12-20T12:34:00;101272;;;6.7;100
49583;BME280;36329;48.816;44.624;2023-12-20T12:37:04;101275;;;6.7;100
49583;BME280;36329;48.816;44.624;2023-12-20T12:40:09;101263;;;6.7;100
49583;BME280;36329;48.816;44.624;2023-12-20T12:43:12;101257;;;6.7;100
49583;BME280;36329;48.816;44.624;2023-12-20T12:46:14;101278;;;6.6;100
49583;BME280;36329;48.816;44.624;2023-12-20T12:49:17;101272;;;6.7;100
49583;BME280;36329;48.816;44.624;2023-12-20T12:52:20;101260;;;6.8;100
49583;BME280;36329;48.816;44.624;2023-12-20T12:55:23;101263;;;6.9;100
49583;BME280;36329;48.816;44.624;2023-12-20T12:58:25;101263;;;6.8;100
49583;BME280;36329;48.816;44.624;2023-12-20T13:01:28;101263;;;6.8;100
49583;BME280;36329;48.816;44.624;2023-12-20T13:04:31;101264;;;6.7;100
49583;BME280;36329;48.816;44.624;2023-12-20T13:07:34;101264;;;6.7;100
49583;BME280;36329;48.816;44.624;2023-12-20T13:10:37;101260;;;6.7;100
49583;BME280;36329;48.816;44.624;2023-12-20T13:13:40;101259;;;6.7;100
49583;BME280;36329;48.816;44.624;2023-12-20T13:16:42;101259;;;6.7;100
49583;BME280;36329;48.816;44.624;2023-12-20T13:19:45;101253;;;6.6;100
49583;BME280;36329;48.816;44.624;2023-12-20T13:22:48;101246;;;6.7;100
49583;BME280;36329;48.816;44.624;2023-12-20T13:25:50;101239;;;6.7;100
49583;BME280;36329;48.816;44.624;2023-12-20T13:28:53;101238;;;6.7;100
49583;BME280;36329;48.816;44.624;2023-12-20T13:31:57;101250;;;6.6;100
49583;BME280;36329;48.816;44.624;2023-12-20T13:35:00;101244;;;6.7;100
49583;BME280;36329;48.816;44.624;2023-12-20T13:38:03;101246;;;6.6;100
49583;BME280;36329;48.816;44.624;2023-12-20T13:41:05;101241;;;6.6;100
49583;BME280;36329;48.816;44.624;2023-12-20T13:44:09;101221;;;6.5;100
49583;BME280;36329;48.816;44.624;2023-12-20T13:47:11;101235;;;6.6;100
49583;BME280;36329;48.816;44.624;2023-12-20T13:50:13;101237;;;6.5;100
49583;BME280;36329;48.816;44.624;2023-12-20T13:53:19;101242;;;6.6;100
49583;BME280;36329;48.816;44.624;2023-12-20T13:56:21;101245;;;6.6;100
49583;BME280;36329;48.816;44.624;2023-12-20T13:59:23;101246;;;6.5;100
49583;BME280;36329;48.816;44.624;2023-12-20T14:02:26;101252;;;6.6;100
49583;BME280;36329;48.816;44.624;2023-12-20T14:05:28;101255;;;6.6;100
49583;BME280;36329;48.816;44.624;2023-12-20T14:08:31;101255;;;6.6;100
49583;BME280;36329;48.816;44.624;2023-12-20T14:11:33;101263;;;6.7;100
49583;BME280;36329;48.816;44.624;2023-12-20T14:14:35;101274;;;6.8;100
49583;BME280;36329;48.816;44.624;2023-12-20T14:17:37;101272;;;6.8;100
49583;BME280;36329;48.816;44.624;2023-12-20T14:20:40;101277;;;6.8;100
49583;BME280;36329;48.816;44.624;2023-12-20T14:23:43;101277;;;6.7;100
49583;BME280;36329;48.816;44.624;2023-12-20T14:26:46;101271;;;6.8;100
49583;BME280;36329;48.816;44.624;2023-12-20T14:29:48;101277;;;6.8;100
49583;BME280;36329;48.816;44.624;2023-12-20T14:32:50;101276;;;6.8;100
49583;BME280;36329;48.816;44.624;2023-12-20T14:35:53;101267;;;6.8;100
49583;BME280;36329;48.816;44.624;2023-12-20T14:38:55;101278;;;6.8;100
49583;BME280;36329;48.816;44.624;2023-12-20T14:41:58;101273;;;6.9;100
49583;BME280;36329;48.816;44.624;2023-12-20T14:45:00;101271;;;7;100
49583;BME280;36329;48.816;44.624;2023-12-20T14:48:03;101283;;;7;100
49583;BME280;36329;48.816;44.624;2023-12-20T14:51:05;101295;;;7;100
49583;BME280;36329;48.816;44.624;2023-12-20T14:54:07;101294;;;7;100
49583;BME280;36329;48.816;44.624;2023-12-20T14:57:10;101305;;;7.1;100
49583;BME280;36329;48.816;44.624;2023-12-20T15:00:12;101299;;;7;100
49583;BME280;36329;48.816;44.624;2023-12-20T15:03:15;101290;;;6.9;100
49583;BME280;36329;48.816;44.624;2023-12-20T15:06:17;101291;;;6.9;100
49583;BME280;36329;48.816;44.624;2023-12-20T15:09:20;101289;;;6.9;100
49583;BME280;36329;48.816;44.624;2023-12-20T15:12:22;101303;;;6.9;100
49583;BME280;36329;48.816;44.624;2023-12-20T15:15:24;101295;;;6.9;100
49583;BME280;36329;48.816;44.624;2023-12-20T15:18:26;101303;;;6.8;100
49583;BME280;36329;48.816;44.624;2023-12-20T15:21:28;101314;;;6.7;100
49583;BME280;36329;48.816;44.624;2023-12-20T15:24:31;101312;;;6.7;100
49583;BME280;36329;48.816;44.624;2023-12-20T15:27:33;101309;;;6.8;100
49583;BME280;36329;48.816;44.624;2023-12-20T15:30:35;101305;;;6.9;100
49583;BME280;36329;48.816;44.624;2023-12-20T15:33:39;101300;;;6.8;100
49583;BME280;36329;48.816;44.624;2023-12-20T15:36:42;101305;;;6.8;100
49583;BME280;36329;48.816;44.624;2023-12-20T15:39:45;101303;;;6.8;100
49583;BME280;36329;48.816;44.624;2023-12-20T15:42:47;101299;;;6.8;100
49583;BME280;36329;48.816;44.624;2023-12-20T15:45:49;101290;;;6.8;100
49583;BME280;36329;48.816;44.624;2023-12-20T15:48:52;101290;;;6.8;100
49583;BME280;36329;48.816;44.624;2023-12-20T15:51:56;101289;;;6.7;100
49583;BME280;36329;48.816;44.624;2023-12-20T15:54:58;101290;;;6.7;100
49583;BME280;36329;48.816;44.624;2023-12-20T15:58:01;101301;;;6.6;100
49583;BME280;36329;48.816;44.624;2023-12-20T16:01:04;101304;;;6.4;100
49583;BME280;36329;48.816;44.624;2023-12-20T16:04:06;101284;;;6.3;100
49583;BME280;36329;48.816;44.624;2023-12-20T16:07:09;101282;;;6.2;100
49583;BME280;36329;48.816;44.624;2023-12-20T16:10:12;101285;;;6.1;100
49583;BME280;36329;48.816;44.624;2023-12-20T16:13:14;101289;;;6.1;100
49583;BME280;36329;48.816;44.624;2023-12-20T16:16:17;101286;;;6.1;100
49583;BME280;36329;48.816;44.624;2023-12-20T16:19:20;101288;;;6.1;100
49583;BME280;36329;48.816;44.624;2023-12-20T16:22:22;101285;;;6.1;100
49583;BME280;36329;48.816;44.624;2023-12-20T16:25:24;101284;;;6.1;100
49583;BME280;36329;48.816;44.624;2023-12-20T16:28:27;101280;;;6.1;100
49583;BME280;36329;48.816;44.624;2023-12-20T16:31:30;101293;;;6.1;100
49583;BME280;36329;48.816;44.624;2023-12-20T16:34:33;101285;;;6.2;100
49583;BME280;36329;48.816;44.624;2023-12-20T16:37:36;101286;;;6.2;100
49583;BME280;36329;48.816;44.624;2023-12-20T16:40:40;101281;;;6;100
49583;BME280;36329;48.816;44.624;2023-12-20T16:43:44;101281;;;6.1;100
49583;BME280;36329;48.816;44.624;2023-12-20T16:46:47;101278;;;6.1;100
49583;BME280;36329;48.816;44.624;2023-12-20T16:49:51;101283;;;6.3;100
49583;BME280;36329;48.816;44.624;2023-12-20T16:52:54;101279;;;6.2;100
49583;BME280;36329;48.816;44.624;2023-12-20T16:55:57;101275;;;6.2;100
49583;BME280;36329;48.816;44.624;2023-12-20T16:58:59;101276;;;6.3;100
49583;BME280;36329;48.816;44.624;2023-12-20T17:02:02;101274;;;6.3;100
49583;BME280;36329;48.816;44.624;2023-12-20T17:05:04;101271;;;6.4;100
49583;BME280;36329;48.816;44.624;2023-12-20T17:08:07;101267;;;6.4;100
49583;BME280;36329;48.816;44.624;2023-12-20T17:11:09;101273;;;6.4;100
49583;BME280;36329;48.816;44.624;2023-12-20T17:14:11;101272;;;6.4;100
49583;BME280;36329;48.816;44.624;2023-12-20T17:17:14;101270;;;6.4;100